createdAt,value
2023-08-12T00:01:42.088Z,5.80
2023-08-12T00:04:08.948Z,6.18
2023-08-12T00:06:35.770Z,6.28
2023-08-12T00:09:05.020Z,5.60
2023-08-12T00:11:31.840Z,5.88
2023-08-12T00:13:58.706Z,5.30
2023-08-12T00:16:25.922Z,5.20
2023-08-12T00:18:52.731Z,5.28
2023-08-12T00:21:19.571Z,5.20
2023-08-12T00:23:46.508Z,5.25
2023-08-12T00:26:13.288Z,4.60
2023-08-12T00:28:40.115Z,5.00
2023-08-12T00:31:06.926Z,5.40
2023-08-12T00:33:33.708Z,5.00
2023-08-12T00:36:00.610Z,5.82
2023-08-12T00:38:27.400Z,4.87
2023-08-12T00:40:54.227Z,5.03
2023-08-12T00:43:21.081Z,4.97
2023-08-12T00:45:47.926Z,4.80
2023-08-12T00:48:14.999Z,4.55
2023-08-12T00:50:41.959Z,4.67
2023-08-12T00:53:09.225Z,4.75
2023-08-12T00:55:36.142Z,4.55
2023-08-12T00:58:03.561Z,4.45
2023-08-12T01:00:30.398Z,4.32
2023-08-12T01:02:57.682Z,4.40
2023-08-12T01:05:24.804Z,4.28
2023-08-12T01:07:51.660Z,4.30
2023-08-12T01:10:18.483Z,4.43
2023-08-12T01:12:59.383Z,4.45
2023-08-12T01:15:27.375Z,4.10
2023-08-12T01:17:55.035Z,4.38
2023-08-12T01:20:26.034Z,4.65
2023-08-12T01:23:10.440Z,4.25
2023-08-12T01:25:37.258Z,4.57
2023-08-12T01:28:04.598Z,3.97
2023-08-12T01:30:31.570Z,4.05
2023-08-12T01:33:12.459Z,4.55
2023-08-12T01:35:48.554Z,4.22
2023-08-12T01:38:15.350Z,4.25
2023-08-12T01:40:42.212Z,4.40
2023-08-12T01:43:09.453Z,4.70
2023-08-12T01:45:36.618Z,4.30
2023-08-12T01:48:04.235Z,4.97
2023-08-12T01:50:31.435Z,4.50
2023-08-12T01:52:59.132Z,4.57
2023-08-12T01:55:26.746Z,4.35
2023-08-12T01:57:53.584Z,4.22
2023-08-12T02:00:20.349Z,4.45
2023-08-12T02:02:47.942Z,4.10
2023-08-12T02:05:15.954Z,3.90
2023-08-12T02:07:42.869Z,3.97
2023-08-12T02:10:10.128Z,4.93
2023-08-12T02:12:37.000Z,4.07
2023-08-12T02:15:03.964Z,4.30
2023-08-12T02:17:30.837Z,4.20
2023-08-12T02:19:57.739Z,4.35
2023-08-12T02:22:24.636Z,4.05
2023-08-12T02:24:51.570Z,4.50
2023-08-12T02:27:18.375Z,4.15
2023-08-12T02:29:45.172Z,3.90
2023-08-12T02:32:11.996Z,4.20
2023-08-12T02:34:38.787Z,4.53
2023-08-12T02:37:05.573Z,4.28
2023-08-12T02:39:32.327Z,4.30
2023-08-12T02:41:59.123Z,4.57
2023-08-12T02:44:25.993Z,4.50
2023-08-12T02:46:52.909Z,4.63
2023-08-12T02:49:19.789Z,4.95
2023-08-12T02:51:46.633Z,4.43
2023-08-12T02:54:13.482Z,4.27
2023-08-12T02:56:41.176Z,4.30
2023-08-12T02:59:08.013Z,4.50
2023-08-12T03:01:34.873Z,4.10
2023-08-12T03:04:01.663Z,4.35
2023-08-12T03:06:28.504Z,4.03
2023-08-12T03:08:55.404Z,4.47
2023-08-12T03:11:22.269Z,4.70
2023-08-12T03:13:49.064Z,4.20
2023-08-12T03:16:15.985Z,4.53
2023-08-12T03:18:42.845Z,4.37
2023-08-12T03:21:10.074Z,4.55
2023-08-12T03:23:37.141Z,4.70
2023-08-12T03:26:04.334Z,4.65
2023-08-12T03:28:31.889Z,4.80
2023-08-12T03:30:58.745Z,4.83
2023-08-12T03:33:25.673Z,4.80
2023-08-12T03:35:52.537Z,5.32
2023-08-12T03:38:19.329Z,5.28
2023-08-12T03:40:46.125Z,5.40
2023-08-12T03:43:13.001Z,5.17
2023-08-12T03:45:43.685Z,5.88
2023-08-12T03:48:10.851Z,5.97
2023-08-12T03:50:40.900Z,5.70
2023-08-12T03:53:07.828Z,5.75
2023-08-12T03:55:34.830Z,5.70
2023-08-12T03:58:01.781Z,5.18
2023-08-12T04:00:28.821Z,5.60
2023-08-12T04:02:55.766Z,5.05
2023-08-12T04:05:22.637Z,5.03
2023-08-12T04:07:49.503Z,5.40
2023-08-12T04:10:16.404Z,5.15
2023-08-12T04:12:43.764Z,5.82
2023-08-12T04:15:10.734Z,5.38
2023-08-12T04:17:37.654Z,5.63
2023-08-12T04:20:07.688Z,5.30
2023-08-12T04:22:35.357Z,5.15
2023-08-12T04:25:03.028Z,5.53
2023-08-12T04:27:29.851Z,5.18
2023-08-12T04:29:56.661Z,6.07
2023-08-12T04:32:23.674Z,5.33
2023-08-12T04:34:50.566Z,5.22
2023-08-12T04:37:17.411Z,5.65
2023-08-12T04:39:44.285Z,5.57
2023-08-12T04:42:11.106Z,5.30
2023-08-12T04:44:37.932Z,5.03
2023-08-12T04:47:04.908Z,4.97
2023-08-12T04:49:31.847Z,4.50
2023-08-12T04:51:59.792Z,4.00
2023-08-12T04:54:26.627Z,3.58
2023-08-12T04:56:53.506Z,3.57
2023-08-12T04:59:20.448Z,3.22
2023-08-12T05:02:02.276Z,3.42
2023-08-12T05:04:30.765Z,3.50
2023-08-12T05:06:57.719Z,3.63
2023-08-12T05:09:24.535Z,2.90
2023-08-12T05:11:51.385Z,3.35
2023-08-12T05:14:18.231Z,2.80
2023-08-12T05:16:45.054Z,3.10
2023-08-12T05:19:11.957Z,2.75
2023-08-12T05:21:38.754Z,2.80
2023-08-12T05:24:06.668Z,2.80
2023-08-12T05:26:34.885Z,2.80
2023-08-12T05:29:01.729Z,2.90
2023-08-12T05:31:28.642Z,3.17
2023-08-12T05:33:55.570Z,3.07
2023-08-12T05:36:22.426Z,3.08
2023-08-12T05:38:49.232Z,3.25
2023-08-12T05:41:16.147Z,3.35
2023-08-12T05:43:44.925Z,3.70
2023-08-12T05:46:11.990Z,4.33
2023-08-12T05:48:38.845Z,4.40
2023-08-12T05:51:05.646Z,5.40
2023-08-12T05:53:33.290Z,6.68
2023-08-12T05:56:00.258Z,5.65
2023-08-12T05:58:27.082Z,4.93
2023-08-12T06:00:53.860Z,4.40
2023-08-12T06:03:20.725Z,4.30
2023-08-12T06:05:47.917Z,4.80
2023-08-12T06:08:15.171Z,4.50
2023-08-12T06:10:41.974Z,3.90
2023-08-12T06:13:08.856Z,4.72
2023-08-12T06:15:35.699Z,5.30
2023-08-12T06:18:03.029Z,4.13
2023-08-12T06:20:30.043Z,4.60
2023-08-12T06:22:56.860Z,4.27
2023-08-12T06:25:23.675Z,3.72
2023-08-12T06:27:50.475Z,2.70
2023-08-12T06:30:17.257Z,4.95
2023-08-12T06:32:44.047Z,4.45
2023-08-12T06:35:10.928Z,4.20
2023-08-12T06:37:37.794Z,3.92
2023-08-12T06:40:05.169Z,5.75
2023-08-12T06:42:32.106Z,3.38
2023-08-12T06:44:59.638Z,3.10
2023-08-12T06:47:28.396Z,2.67
2023-08-12T06:49:55.665Z,2.70
2023-08-12T06:52:22.488Z,3.35
2023-08-12T06:54:49.375Z,4.05
2023-08-12T06:57:16.144Z,4.30
2023-08-12T06:59:43.002Z,3.20
2023-08-12T07:02:10.118Z,3.42
2023-08-12T07:04:37.385Z,3.33
2023-08-12T07:07:04.299Z,3.22
2023-08-12T07:09:31.137Z,3.08
2023-08-12T07:11:58.100Z,3.27
2023-08-12T07:14:24.901Z,3.17
2023-08-12T07:16:51.720Z,3.00
2023-08-12T07:19:18.480Z,2.55
2023-08-12T07:21:45.352Z,2.95
2023-08-12T07:24:12.165Z,3.00
2023-08-12T07:26:38.958Z,2.65
2023-08-12T07:29:05.979Z,3.03
2023-08-12T07:31:32.806Z,3.08
2023-08-12T07:33:59.588Z,2.88
2023-08-12T07:36:26.375Z,2.30
2023-08-12T07:38:53.131Z,2.40
2023-08-12T07:41:19.897Z,2.75
2023-08-12T07:43:46.715Z,2.67
2023-08-12T07:46:13.532Z,2.75
2023-08-12T07:48:40.334Z,2.70
2023-08-12T07:51:07.137Z,2.72
2023-08-12T07:53:34.005Z,3.00
2023-08-12T07:56:00.773Z,3.70
2023-08-12T07:58:27.614Z,3.05
2023-08-12T08:00:55.264Z,2.77
2023-08-12T08:03:22.161Z,3.22
2023-08-12T08:05:49.271Z,3.90
2023-08-12T08:08:16.221Z,3.00
2023-08-12T08:10:43.057Z,3.55
2023-08-12T08:13:09.845Z,3.27
2023-08-12T08:15:36.617Z,3.20
2023-08-12T08:18:05.597Z,3.42
2023-08-12T08:20:33.114Z,3.30
2023-08-12T08:22:59.918Z,3.28
2023-08-12T08:25:26.829Z,3.90
2023-08-12T08:27:54.295Z,3.20
2023-08-12T08:30:21.112Z,4.35
2023-08-12T08:32:48.072Z,3.90
2023-08-12T08:35:15.268Z,3.85
2023-08-12T08:37:42.376Z,4.03
2023-08-12T08:40:09.853Z,4.13
2023-08-12T08:42:36.625Z,3.80
2023-08-12T08:45:03.591Z,3.55
2023-08-12T08:47:30.659Z,3.95
2023-08-12T08:49:58.076Z,3.83
2023-08-12T08:52:24.984Z,2.83
2023-08-12T08:54:53.431Z,3.20
2023-08-12T08:57:22.896Z,3.15
2023-08-12T08:59:57.900Z,3.17
2023-08-12T09:02:25.255Z,3.77
2023-08-12T09:04:52.052Z,2.92
2023-08-12T09:07:19.520Z,2.67
2023-08-12T09:09:49.599Z,3.05
2023-08-12T09:12:17.286Z,3.28
2023-08-12T09:14:44.240Z,4.17
2023-08-12T09:17:11.181Z,3.28
2023-08-12T09:19:38.185Z,3.40
2023-08-12T09:22:06.536Z,3.05
2023-08-12T09:24:33.368Z,3.90
2023-08-12T09:27:00.128Z,4.63
2023-08-12T09:29:36.972Z,4.20
2023-08-12T09:32:11.489Z,3.95
2023-08-12T09:34:38.807Z,2.75
2023-08-12T09:37:05.604Z,3.08
2023-08-12T09:39:32.562Z,2.50
2023-08-12T09:42:00.653Z,2.70
2023-08-12T09:44:27.443Z,3.50
2023-08-12T09:47:00.370Z,2.70
2023-08-12T09:49:27.249Z,2.70
2023-08-12T09:51:54.209Z,2.33
2023-08-12T09:54:20.987Z,3.00
2023-08-12T09:56:49.369Z,3.08
2023-08-12T09:59:20.394Z,3.28
2023-08-12T10:01:47.592Z,2.75
2023-08-12T10:04:14.521Z,2.50
2023-08-12T10:06:41.806Z,3.08
2023-08-12T10:09:12.313Z,2.80
2023-08-12T10:11:39.189Z,3.03
2023-08-12T10:14:05.988Z,2.63
2023-08-12T10:16:32.786Z,2.93
2023-08-12T10:19:00.365Z,2.63
2023-08-12T10:21:27.250Z,3.40
2023-08-12T10:23:54.712Z,2.75
2023-08-12T10:26:21.452Z,2.90
2023-08-12T10:28:50.112Z,2.60
2023-08-12T10:31:19.575Z,2.45
2023-08-12T10:33:49.569Z,3.25
2023-08-12T10:36:16.677Z,2.70
2023-08-12T10:38:44.971Z,5.90
2023-08-12T10:41:21.920Z,3.53
2023-08-12T10:44:04.007Z,2.97
2023-08-12T10:46:37.364Z,3.35
2023-08-12T10:49:10.546Z,3.03
2023-08-12T10:51:55.002Z,3.28
2023-08-12T10:54:28.476Z,2.77
2023-08-12T10:57:09.237Z,2.83
2023-08-12T10:59:51.784Z,3.80
2023-08-12T11:02:28.689Z,3.75
2023-08-12T11:04:57.150Z,3.60
2023-08-12T11:07:30.390Z,2.70
2023-08-12T11:10:01.111Z,2.67
2023-08-12T11:12:53.860Z,2.90
2023-08-12T11:15:30.334Z,2.85
2023-08-12T11:17:57.234Z,2.50
2023-08-12T11:20:24.128Z,2.70
2023-08-12T11:22:50.935Z,2.60
2023-08-12T11:25:19.207Z,2.92
2023-08-12T11:27:48.453Z,2.75
2023-08-12T11:30:16.734Z,3.08
2023-08-12T11:32:47.909Z,2.63
2023-08-12T11:35:24.469Z,2.67
2023-08-12T11:37:54.226Z,2.78
2023-08-12T11:40:21.183Z,2.95
2023-08-12T11:42:48.788Z,3.17
2023-08-12T11:45:18.356Z,2.70
2023-08-12T11:47:45.926Z,2.92
2023-08-12T11:50:13.248Z,3.03
2023-08-12T11:52:40.519Z,3.03
2023-08-12T11:55:07.948Z,2.80
2023-08-12T11:57:38.344Z,4.03
2023-08-12T12:00:19.016Z,3.45
2023-08-12T12:02:52.945Z,3.50
2023-08-12T12:05:28.824Z,3.92
2023-08-12T12:07:55.671Z,3.20
2023-08-12T12:10:33.386Z,3.30
2023-08-12T12:13:02.097Z,3.60
2023-08-12T12:15:28.978Z,4.05
2023-08-12T12:17:55.939Z,3.50
2023-08-12T12:20:23.002Z,3.10
2023-08-12T12:22:50.155Z,3.73
2023-08-12T12:25:20.483Z,3.10
2023-08-12T12:27:47.963Z,5.13
2023-08-12T12:30:15.555Z,4.07
2023-08-12T12:32:42.485Z,2.80
2023-08-12T12:35:09.567Z,3.13
2023-08-12T12:37:37.305Z,2.88
2023-08-12T12:40:06.487Z,2.80
2023-08-12T12:42:33.634Z,3.17
2023-08-12T12:45:00.652Z,3.20
2023-08-12T12:47:27.914Z,3.43
2023-08-12T12:49:54.780Z,3.85
2023-08-12T12:52:21.605Z,4.50
2023-08-12T12:54:48.426Z,3.72
2023-08-12T12:57:15.266Z,3.50
2023-08-12T12:59:42.034Z,3.20
2023-08-12T13:02:09.037Z,3.53
2023-08-12T13:04:35.913Z,4.30
2023-08-12T13:07:02.745Z,4.10
2023-08-12T13:09:29.551Z,5.35
2023-08-12T13:11:58.287Z,3.90
2023-08-12T13:14:25.468Z,3.25
2023-08-12T13:16:52.368Z,3.42
2023-08-12T13:19:19.160Z,3.15
2023-08-12T13:21:46.013Z,3.80
2023-08-12T13:24:13.222Z,2.87
2023-08-12T13:26:39.999Z,3.28
2023-08-12T13:29:06.814Z,3.58
2023-08-12T13:31:34.497Z,3.03
2023-08-12T13:34:01.436Z,3.83
2023-08-12T13:36:28.277Z,3.00
2023-08-12T13:38:55.125Z,2.92
2023-08-12T13:41:22.031Z,3.55
2023-08-12T13:43:48.897Z,3.47
2023-08-12T13:46:15.848Z,3.38
2023-08-12T13:48:43.309Z,2.90
2023-08-12T13:51:10.398Z,3.08
2023-08-12T13:53:37.343Z,3.55
2023-08-12T13:56:04.362Z,3.25
2023-08-12T13:58:31.156Z,3.65
2023-08-12T14:00:58.588Z,3.00
2023-08-12T14:03:25.372Z,2.60
2023-08-12T14:05:52.299Z,3.05
2023-08-12T14:08:19.203Z,2.50
2023-08-12T14:10:47.985Z,3.50
2023-08-12T14:13:14.847Z,2.80
2023-08-12T14:15:41.930Z,3.00
2023-08-12T14:18:09.420Z,2.90
2023-08-12T14:20:36.440Z,2.85
2023-08-12T14:23:03.266Z,3.35
2023-08-12T14:25:30.088Z,2.57
2023-08-12T14:27:56.874Z,3.00
2023-08-12T14:30:27.068Z,3.50
2023-08-12T14:32:54.533Z,2.95
2023-08-12T14:35:21.552Z,3.47
2023-08-12T14:37:48.535Z,5.73
2023-08-12T14:40:15.390Z,5.70
2023-08-12T14:42:42.165Z,3.67
2023-08-12T14:45:10.143Z,3.03
2023-08-12T14:47:37.024Z,3.40
2023-08-12T14:50:05.432Z,2.67
2023-08-12T14:52:32.408Z,2.90
2023-08-12T14:54:59.244Z,2.85
2023-08-12T14:57:26.005Z,2.50
2023-08-12T14:59:52.977Z,3.25
2023-08-12T15:02:25.697Z,2.60
2023-08-12T15:04:52.765Z,3.13
2023-08-12T15:07:20.116Z,3.15
2023-08-12T15:09:47.351Z,2.80
2023-08-12T15:12:14.183Z,3.33
2023-08-12T15:14:40.988Z,3.53
2023-08-12T15:17:07.900Z,3.15
2023-08-12T15:19:34.816Z,3.60
2023-08-12T15:22:01.658Z,3.30
2023-08-12T15:24:28.508Z,3.60
2023-08-12T15:26:55.418Z,3.53
2023-08-12T15:29:22.269Z,3.30
2023-08-12T15:31:49.135Z,3.50
2023-08-12T15:34:15.913Z,3.85
2023-08-12T15:36:43.128Z,3.80
2023-08-12T15:39:09.997Z,3.30
2023-08-12T15:41:42.943Z,3.22
2023-08-12T15:44:11.043Z,3.53
2023-08-12T15:46:38.481Z,2.90
2023-08-12T15:49:11.940Z,3.50
2023-08-12T15:51:39.689Z,3.30
2023-08-12T15:54:07.171Z,3.35
2023-08-12T15:56:37.040Z,3.58
2023-08-12T15:59:07.193Z,3.40
2023-08-12T16:01:34.372Z,3.70
2023-08-12T16:04:01.266Z,2.97
2023-08-12T16:06:28.120Z,3.28
2023-08-12T16:09:15.110Z,3.88
2023-08-12T16:11:41.537Z,3.25
2023-08-12T16:14:08.308Z,3.42
2023-08-12T16:16:35.095Z,3.40
2023-08-12T16:19:02.307Z,3.75
2023-08-12T16:21:29.098Z,3.85
2023-08-12T16:23:55.900Z,4.25
2023-08-12T16:26:22.684Z,4.18
2023-08-12T16:28:49.468Z,4.00
2023-08-12T16:31:16.318Z,3.95
2023-08-12T16:33:43.091Z,3.88
2023-08-12T16:36:09.887Z,3.63
2023-08-12T16:38:36.697Z,3.45
2023-08-12T16:41:04.820Z,3.83
2023-08-12T16:43:31.636Z,3.97
2023-08-12T16:45:58.795Z,4.10
2023-08-12T16:48:25.726Z,4.40
2023-08-12T16:50:52.515Z,4.93
2023-08-12T16:53:19.294Z,3.90
2023-08-12T16:55:46.060Z,4.32
2023-08-12T16:58:13.060Z,4.22
2023-08-12T17:00:39.865Z,4.05
2023-08-12T17:03:06.767Z,4.30
2023-08-12T17:05:33.581Z,4.37
2023-08-12T17:08:00.410Z,4.15
2023-08-12T17:10:27.473Z,4.13
2023-08-12T17:12:55.446Z,4.00
2023-08-12T17:15:22.376Z,4.10
2023-08-12T17:17:49.221Z,3.90
2023-08-12T17:20:16.075Z,3.95
2023-08-12T17:22:42.847Z,4.00
2023-08-12T17:25:10.158Z,4.30
2023-08-12T17:27:36.973Z,4.03
2023-08-12T17:30:04.286Z,3.87
2023-08-12T17:32:31.132Z,4.00
2023-08-12T17:34:58.342Z,3.92
2023-08-12T17:37:25.239Z,4.80
2023-08-12T17:39:52.181Z,4.90
2023-08-12T17:42:20.228Z,10.70
2023-08-12T17:44:47.046Z,9.32
2023-08-12T17:47:13.959Z,11.93
2023-08-12T17:49:40.836Z,9.15
2023-08-12T17:52:07.621Z,8.82
2023-08-12T17:54:34.424Z,6.53
2023-08-12T17:57:01.238Z,6.38
2023-08-12T17:59:28.033Z,6.25
2023-08-12T18:01:54.890Z,6.38
2023-08-12T18:04:21.696Z,5.68
2023-08-12T18:06:48.489Z,6.80
2023-08-12T18:09:16.602Z,6.75
2023-08-12T18:11:43.445Z,6.70
2023-08-12T18:14:10.218Z,8.95
2023-08-12T18:16:37.072Z,9.82
2023-08-12T18:19:04.077Z,7.50
2023-08-12T18:21:30.894Z,7.50
2023-08-12T18:23:57.735Z,6.93
2023-08-12T18:26:24.565Z,6.03
2023-08-12T18:28:51.353Z,6.32
2023-08-12T18:31:18.176Z,6.30
2023-08-12T18:33:44.937Z,6.00
2023-08-12T18:36:11.735Z,6.63
2023-08-12T18:38:38.530Z,6.80
2023-08-12T18:41:05.309Z,5.85
2023-08-12T18:43:32.089Z,6.40
2023-08-12T18:45:58.992Z,6.05
2023-08-12T18:48:26.094Z,6.15
2023-08-12T18:50:52.892Z,6.15
2023-08-12T18:53:19.696Z,6.90
2023-08-12T18:55:46.569Z,6.83
2023-08-12T18:58:13.393Z,6.40
2023-08-12T19:00:40.382Z,6.63
2023-08-12T19:03:07.318Z,6.60
2023-08-12T19:05:34.228Z,6.38
2023-08-12T19:08:03.210Z,6.30
2023-08-12T19:10:30.153Z,6.03
2023-08-12T19:12:57.008Z,6.25
2023-08-12T19:15:23.886Z,6.13
2023-08-12T19:17:50.767Z,6.70
2023-08-12T19:20:17.628Z,7.17
2023-08-12T19:22:44.700Z,7.63
2023-08-12T19:25:11.565Z,7.20
2023-08-12T19:27:38.397Z,7.32
2023-08-12T19:30:05.700Z,7.65
2023-08-12T19:32:32.566Z,7.30
2023-08-12T19:34:59.386Z,6.72
2023-08-12T19:37:26.280Z,6.90
2023-08-12T19:39:53.050Z,7.43
2023-08-12T19:42:19.879Z,7.75
2023-08-12T19:44:46.641Z,7.53
2023-08-12T19:47:13.429Z,8.27
2023-08-12T19:49:40.212Z,8.10
2023-08-12T19:52:07.123Z,7.22
2023-08-12T19:54:33.907Z,7.82
2023-08-12T19:57:00.715Z,7.30
2023-08-12T19:59:29.655Z,7.05
2023-08-12T20:01:57.194Z,7.35
2023-08-12T20:04:24.649Z,7.57
2023-08-12T20:06:51.717Z,8.02
2023-08-12T20:09:19.098Z,7.10
2023-08-12T20:11:45.889Z,6.68
2023-08-12T20:14:12.629Z,7.07
2023-08-12T20:16:39.427Z,6.80
2023-08-12T20:19:07.960Z,7.18
2023-08-12T20:21:34.730Z,7.37
2023-08-12T20:24:01.459Z,7.07
2023-08-12T20:26:28.240Z,8.30
2023-08-12T20:28:55.020Z,7.90
2023-08-12T20:31:23.899Z,7.78
2023-08-12T20:33:50.822Z,7.53
2023-08-12T20:36:20.366Z,7.65
2023-08-12T20:38:47.539Z,7.57
2023-08-12T20:41:14.356Z,7.63
2023-08-12T20:43:41.199Z,6.80
2023-08-12T20:46:08.007Z,7.60
2023-08-12T20:48:34.945Z,7.38
2023-08-12T20:51:01.844Z,7.03
2023-08-12T20:53:32.465Z,6.82
2023-08-12T20:55:59.590Z,7.05
2023-08-12T20:58:26.416Z,7.70
2023-08-12T21:00:53.188Z,8.15
2023-08-12T21:03:21.219Z,7.72
2023-08-12T21:05:54.234Z,7.80
2023-08-12T21:08:21.035Z,8.80
2023-08-12T21:10:54.464Z,9.10
2023-08-12T21:13:21.906Z,8.02
2023-08-12T21:15:48.768Z,8.25
2023-08-12T21:18:15.578Z,7.97
2023-08-12T21:20:42.358Z,8.10
2023-08-12T21:23:09.242Z,8.13
2023-08-12T21:25:36.105Z,7.93
2023-08-12T21:28:02.970Z,8.77
2023-08-12T21:30:29.893Z,7.90
2023-08-12T21:32:56.906Z,8.50
2023-08-12T21:35:23.937Z,9.27
2023-08-12T21:37:50.723Z,9.07
2023-08-12T21:40:17.556Z,8.57
2023-08-12T21:42:44.321Z,8.48
2023-08-12T21:45:11.729Z,8.60
2023-08-12T21:47:38.488Z,8.30
2023-08-12T21:50:06.311Z,9.23
2023-08-12T21:52:33.073Z,8.52
2023-08-12T21:54:59.871Z,8.75
2023-08-12T21:57:26.662Z,8.82
2023-08-12T21:59:53.510Z,9.27
2023-08-12T22:02:26.966Z,8.95
2023-08-12T22:04:54.012Z,8.95
2023-08-12T22:07:21.045Z,8.52
2023-08-12T22:09:47.835Z,8.10
2023-08-12T22:12:14.826Z,8.30
2023-08-12T22:14:41.993Z,8.30
2023-08-12T22:17:08.800Z,8.40
2023-08-12T22:19:35.612Z,8.55
2023-08-12T22:22:13.257Z,8.82
2023-08-12T22:24:46.311Z,7.40
2023-08-12T22:27:13.173Z,7.90
2023-08-12T22:29:40.009Z,8.95
2023-08-12T22:32:06.886Z,9.30
2023-08-12T22:34:33.705Z,9.40
2023-08-12T22:37:00.490Z,9.37
2023-08-12T22:39:27.271Z,9.27
2023-08-12T22:41:54.037Z,9.20
2023-08-12T22:44:20.800Z,8.95
2023-08-12T22:46:47.611Z,10.85
2023-08-12T22:49:15.287Z,10.13
2023-08-12T22:51:42.054Z,9.75
2023-08-12T22:54:09.481Z,9.98
2023-08-12T22:56:38.683Z,11.15
2023-08-12T22:59:05.558Z,10.98
2023-08-12T23:01:32.393Z,10.73
2023-08-12T23:03:59.161Z,10.80
2023-08-12T23:06:26.030Z,11.05
2023-08-12T23:08:52.971Z,10.98
2023-08-12T23:11:19.776Z,10.60
2023-08-12T23:13:46.700Z,10.07
2023-08-12T23:16:13.590Z,10.98
2023-08-12T23:18:40.378Z,11.48
2023-08-12T23:21:07.161Z,11.25
2023-08-12T23:23:33.934Z,11.43
2023-08-12T23:26:00.700Z,11.57
2023-08-12T23:28:27.566Z,12.23
2023-08-12T23:30:54.414Z,12.30
2023-08-12T23:33:21.231Z,10.77
2023-08-12T23:35:48.057Z,10.73
2023-08-12T23:38:14.873Z,11.20
2023-08-12T23:40:41.634Z,10.80
2023-08-12T23:43:08.387Z,11.18
2023-08-12T23:45:39.077Z,11.77
2023-08-12T23:48:06.144Z,11.45
2023-08-12T23:50:33.012Z,11.60
2023-08-12T23:52:59.879Z,11.60
2023-08-12T23:55:26.753Z,10.18
2023-08-12T23:57:53.547Z,10.90
